Time;durP1;ratioP1;P1;durP2;ratioP2;P2;SDS_P1;SDS_P2;PMS_P1;PMS_P2;Temp;Humidity;BMP_temperature;BMP_pressure;BME280_temperature;BME280_humidity;BME280_pressure;Samples;Min_cycle;Max_cycle;Signal;HPM_P1;HPM_P2
2022/02/14 00:01:00;;;;;;;13.50;9.97;;;;;;;5.21;51.39;102354.13;2095788;28;20187;-70
2022/02/14 00:02:00;;;;;;;14.30;10.33;;;;;;;6.21;51.58;102510.28;2096170;28;20195;-70
2022/02/14 00:03:01;;;;;;;13.90;10.23;;;;;;;6.19;51.44;102505.13;2096322;28;20194;-70
2022/02/14 00:04:01;;;;;;;13.43;9.10;;;;;;;5.67;50.97;102416.56;2096397;28;20218;-70
2022/02/14 00:05:03;;;;;;;12.67;9.30;;;;;;;6.20;51.13;102492.16;2096443;28;20207;-70
2022/02/14 00:06:03;;;;;;;13.80;9.55;;;;;;;6.28;50.69;102496.66;2097131;28;20183;-70
2022/02/14 00:07:04;;;;;;;13.13;9.60;;;;;;;6.31;50.59;102498.72;2097074;28;20184;-70
2022/02/14 00:08:05;;;;;;;11.33;8.90;;;;;;;5.06;50.73;102299.94;2096788;28;20200;-70
2022/02/14 00:09:05;;;;;;;12.30;9.20;;;;;;;6.30;50.64;102492.41;2096886;28;20188;-70
2022/02/14 00:10:08;;;;;;;12.27;9.10;;;;;;;6.25;50.27;102484.41;2095945;28;20242;-70
2022/02/14 00:11:08;;;;;;;11.52;8.88;;;;;;;6.19;50.16;102476.78;2095376;28;20645;-70
2022/02/14 00:12:09;;;;;;;12.13;8.77;;;;;;;6.31;49.41;102490.47;2096243;28;20241;-70
2022/02/14 00:13:09;;;;;;;11.87;8.77;;;;;;;6.29;49.84;102490.81;2096614;28;20190;-70
2022/02/14 00:14:10;;;;;;;13.20;9.27;;;;;;;5.51;50.00;102366.28;2097160;28;20250;-70
2022/02/14 00:15:11;;;;;;;12.47;8.83;;;;;;;6.34;50.00;102504.31;2096945;28;20197;-70
2022/02/14 00:16:12;;;;;;;11.20;8.25;;;;;;;6.19;49.85;102463.84;2096924;28;20247;-70
2022/02/14 00:17:12;;;;;;;11.50;9.03;;;;;;;5.81;49.47;102394.94;2096813;28;20199;-71
2022/02/14 00:18:13;;;;;;;11.97;8.40;;;;;;;6.44;48.86;102492.72;2096952;28;20418;-70
2022/02/14 00:19:13;;;;;;;11.97;9.20;;;;;;;6.41;48.96;102487.94;2096164;28;20198;-70
2022/02/14 00:20:14;;;;;;;13.30;8.67;;;;;;;6.41;48.88;102485.19;2096077;28;20579;-70
2022/02/14 00:21:15;;;;;;;12.77;8.53;;;;;;;5.95;48.85;102411.75;2095910;28;20662;-70
2022/02/14 00:22:21;;;;;;;12.53;8.90;;;;;;;6.40;48.87;102478.06;2096225;28;20194;-70
2022/02/14 00:23:22;;;;;;;12.75;8.65;;;;;;;6.37;49.04;102470.56;2096498;28;20544;-70
2022/02/14 00:24:22;;;;;;;12.53;8.83;;;;;;;5.75;49.13;102371.53;2097107;28;20175;-70
2022/02/14 00:25:23;;;;;;;11.00;8.47;;;;;;;6.44;49.51;102478.16;2096858;28;20176;-70
2022/02/14 00:26:23;;;;;;;11.67;9.00;;;;;;;6.42;49.05;102486.00;2097111;28;20179;-70
2022/02/14 00:27:24;;;;;;;10.97;8.13;;;;;;;6.44;49.13;102483.66;2096928;28;20207;-70
2022/02/14 00:28:25;;;;;;;13.27;8.77;;;;;;;5.98;49.52;102422.06;2096760;28;20685;-70
2022/02/14 00:29:25;;;;;;;13.17;8.33;;;;;;;6.40;49.68;102483.59;2096684;28;20196;-70
2022/02/14 00:30:26;;;;;;;12.47;8.70;;;;;;;6.26;48.96;102469.50;2096812;28;20202;-70
2022/02/14 00:31:26;;;;;;;11.83;8.50;;;;;;;6.32;49.63;102484.59;2086709;28;20191;-70
2022/02/14 00:32:27;;;;;;;12.60;8.23;;;;;;;6.25;49.75;102483.63;2087169;28;20180;-70
2022/02/14 00:33:28;;;;;;;12.70;9.13;;;;;;;5.56;49.27;102367.94;2096358;28;20176;-70
2022/02/14 00:34:28;;;;;;;12.33;8.80;;;;;;;6.09;48.83;102455.31;2096995;28;20263;-70
2022/02/14 00:35:29;;;;;;;11.60;9.10;;;;;;;6.35;48.90;102489.38;2096839;28;20190;-70
2022/02/14 00:36:29;;;;;;;12.73;9.10;;;;;;;6.37;48.90;102486.25;2097182;28;20184;-70
2022/02/14 00:37:30;;;;;;;13.00;9.60;;;;;;;6.35;48.86;102486.63;2098195;28;20184;-70
2022/02/14 00:38:31;;;;;;;13.23;8.97;;;;;;;6.42;49.61;102477.72;2098354;28;20225;-70
2022/02/14 00:39:32;;;;;;;13.83;9.07;;;;;;;6.41;48.70;102487.16;2097918;28;20249;-70
2022/02/14 00:40:32;;;;;;;12.05;8.48;;;;;;;6.39;49.26;102475.69;2098392;28;20241;-70
2022/02/14 00:41:33;;;;;;;13.93;9.10;;;;;;;6.34;49.30;102479.53;2088108;28;20228;-70
2022/02/14 00:42:33;;;;;;;11.23;8.43;;;;;;;6.25;49.83;102459.63;2088163;28;20243;-70
2022/02/14 00:43:34;;;;;;;12.93;8.53;;;;;;;5.76;49.15;102375.91;2097835;28;20215;-70
2022/02/14 00:44:35;;;;;;;13.17;9.00;;;;;;;6.42;49.06;102477.72;2098342;28;20180;-70
2022/02/14 00:45:35;;;;;;;12.47;8.60;;;;;;;5.38;49.27;102331.75;2098238;28;20190;-70
2022/02/14 00:46:36;;;;;;;11.30;8.73;;;;;;;6.46;49.15;102476.63;2098386;28;20197;-70
2022/02/14 00:47:36;;;;;;;11.60;8.10;;;;;;;6.43;49.02;102484.81;2098284;28;20569;-70
2022/02/14 00:48:37;;;;;;;12.23;8.97;;;;;;;6.40;49.13;102469.81;2098251;28;20226;-70
2022/02/14 00:49:37;;;;;;;10.97;8.27;;;;;;;6.43;48.84;102473.81;2097598;28;20661;-70
2022/02/14 00:50:38;;;;;;;12.90;8.80;;;;;;;6.37;48.84;102478.81;2098408;28;20669;-70
2022/02/14 00:51:39;;;;;;;13.07;8.40;;;;;;;6.38;49.27;102471.34;2097364;28;20215;-70
2022/02/14 00:52:40;;;;;;;10.87;8.10;;;;;;;6.38;48.88;102474.09;2088372;28;20686;-70
2022/02/14 00:53:41;;;;;;;12.90;8.48;;;;;;;6.33;48.65;102455.09;2089387;28;20181;-70
2022/02/14 00:54:43;;;;;;;13.43;9.13;;;;;;;6.38;49.56;102472.16;2098258;28;20191;-70
2022/02/14 00:55:43;;;;;;;10.45;8.35;;;;;;;6.37;49.23;102465.03;2098314;28;20172;-70
2022/02/14 00:56:44;;;;;;;11.87;9.00;;;;;;;6.33;49.78;102466.91;2098153;28;20665;-70
2022/02/14 00:57:47;;;;;;;12.20;8.63;;;;;;;6.04;49.50;102420.63;2098470;28;20183;-70
2022/02/14 00:58:47;;;;;;;11.93;8.93;;;;;;;6.38;48.75;102458.38;2098085;28;20263;-70
2022/02/14 00:59:48;;;;;;;12.33;8.97;;;;;;;6.29;49.20;102445.94;2097753;28;20184;-70
2022/02/14 01:00:48;;;;;;;12.13;8.60;;;;;;;6.38;49.32;102460.31;2088207;28;20194;-70
2022/02/14 01:01:49;;;;;;;13.67;8.63;;;;;;;5.35;49.17;102298.69;2088628;28;20190;-70
2022/02/14 01:02:50;;;;;;;12.10;8.20;;;;;;;6.32;49.05;102454.31;2097661;28;20179;-70
2022/02/14 01:03:50;;;;;;;12.70;8.57;;;;;;;6.17;49.62;102426.81;2098161;28;20586;-71
2022/02/14 01:04:51;;;;;;;12.10;8.73;;;;;;;6.30;49.13;102459.38;2098071;28;20233;-71
2022/02/14 01:05:51;;;;;;;10.57;7.87;;;;;;;6.31;49.21;102451.91;2098202;28;20184;-70
2022/02/14 01:06:52;;;;;;;12.93;8.93;;;;;;;6.29;49.63;102451.44;2098146;28;20313;-70
2022/02/14 01:07:53;;;;;;;11.20;8.27;;;;;;;6.21;49.34;102439.47;2097979;28;20176;-70
2022/02/14 01:08:54;;;;;;;13.17;9.20;;;;;;;6.29;50.05;102448.69;2098248;28;20542;-70
2022/02/14 01:09:55;;;;;;;12.35;8.50;;;;;;;6.28;49.72;102445.16;2097718;28;20649;-70
2022/02/14 01:10:55;;;;;;;14.47;8.93;;;;;;;6.30;49.78;102442.84;2097122;28;20808;-70
2022/02/14 01:11:56;;;;;;;19.03;9.60;;;;;;;6.29;50.20;102438.50;2097362;28;20195;-70
2022/02/14 01:12:56;;;;;;;12.53;8.80;;;;;;;5.88;49.37;102381.31;2097980;28;20183;-70
2022/02/14 01:13:57;;;;;;;13.53;9.37;;;;;;;5.07;49.30;102262.28;2098072;28;20215;-70
2022/02/14 01:14:57;;;;;;;12.53;8.57;;;;;;;6.15;49.77;102437.38;2098106;28;20608;-70
2022/02/14 01:15:58;;;;;;;11.80;9.07;;;;;;;6.01;49.51;102415.81;2089103;28;20716;-70
2022/02/14 01:16:59;;;;;;;12.10;8.50;;;;;;;6.06;49.30;102436.78;2089192;28;20176;-70
2022/02/14 01:17:59;;;;;;;13.10;8.60;;;;;;;6.05;49.33;102427.72;2098071;28;20180;-70
2022/02/14 01:19:00;;;;;;;10.40;8.13;;;;;;;6.04;49.65;102430.81;2098176;28;20184;-70
2022/02/14 01:20:07;;;;;;;11.88;9.18;;;;;;;6.07;49.79;102430.94;2088515;28;20584;-70
2022/02/14 01:21:07;;;;;;;13.10;9.10;;;;;;;6.02;50.15;102427.63;2088882;28;20241;-70
2022/02/14 01:22:08;;;;;;;13.30;9.57;;;;;;;6.07;49.62;102436.44;2097253;28;20246;-70
2022/02/14 01:23:08;;;;;;;12.10;8.67;;;;;;;6.11;49.56;102431.78;2097641;28;20229;-70
2022/02/14 01:24:09;;;;;;;11.67;8.40;;;;;;;5.60;49.82;102361.34;2098138;28;20271;-70
2022/02/14 01:25:10;;;;;;;10.93;8.57;;;;;;;6.08;50.08;102428.94;2097940;28;20179;-70
2022/02/14 01:26:11;;;;;;;12.48;8.70;;;;;;;6.09;49.73;102431.34;2098032;28;20190;-70
2022/02/14 01:27:11;;;;;;;12.90;9.50;;;;;;;6.10;49.89;102427.44;2097888;28;20187;-70
2022/02/14 01:28:12;;;;;;;14.17;9.10;;;;;;;6.07;49.32;102424.59;2098150;28;20601;-70
2022/02/14 01:29:12;;;;;;;12.07;8.80;;;;;;;6.08;49.83;102426.19;2097718;28;20187;-70
2022/02/14 01:30:13;;;;;;;12.53;8.70;;;;;;;6.10;49.27;102426.66;2097646;28;20179;-70
2022/02/14 01:31:14;;;;;;;12.87;9.13;;;;;;;5.84;49.82;102383.19;2096945;28;20258;-70
2022/02/14 01:32:19;;;;;;;12.33;8.30;;;;;;;5.04;49.65;102252.81;2097343;28;20422;-70
2022/02/14 01:33:20;;;;;;;12.27;8.50;;;;;;;6.14;49.58;102422.00;2097489;28;20243;-70
2022/02/14 01:34:21;;;;;;;11.73;9.03;;;;;;;6.15;49.86;102421.66;2097982;28;20656;-70
2022/02/14 01:35:21;;;;;;;12.17;8.43;;;;;;;6.17;49.66;102416.59;2097728;28;20704;-70
2022/02/14 01:36:22;;;;;;;13.03;8.70;;;;;;;6.07;49.98;102403.41;2098102;28;20183;-70
2022/02/14 01:37:22;;;;;;;12.23;8.83;;;;;;;6.12;49.45;102414.13;2097933;28;20185;-70
2022/02/14 01:38:23;;;;;;;10.63;8.30;;;;;;;6.14;49.78;102422.81;2098051;28;20201;-70
2022/02/14 01:39:25;;;;;;;12.87;8.90;;;;;;;6.15;49.77;102402.38;2097655;28;20182;-70
2022/02/14 01:40:26;;;;;;;12.25;8.45;;;;;;;6.15;49.92;102412.63;2097605;28;20179;-70
2022/02/14 01:41:26;;;;;;;12.27;8.43;;;;;;;6.19;49.89;102414.28;2096643;28;20229;-70
2022/02/14 01:42:27;;;;;;;12.87;9.03;;;;;;;6.18;50.00;102409.94;2097161;28;20239;-70
2022/02/14 01:43:27;;;;;;;11.40;8.57;;;;;;;6.23;49.09;102406.09;2097471;28;20650;-70
2022/02/14 01:44:40;;;;;;;10.53;8.60;;;;;;;6.19;49.90;102405.22;2097976;28;20181;-70
2022/02/14 01:45:40;;;;;;;13.13;8.45;;;;;;;6.16;50.24;102403.19;2097918;28;20170;-70
2022/02/14 01:46:41;;;;;;;11.70;8.70;;;;;;;6.14;49.65;102405.50;2097910;28;20210;-70
2022/02/14 01:47:41;;;;;;;10.20;8.50;;;;;;;6.12;49.64;102405.88;2097808;28;20185;-70
2022/02/14 01:48:42;;;;;;;12.27;8.60;;;;;;;6.10;50.19;102407.38;2097458;28;20467;-70
2022/02/14 01:49:44;;;;;;;12.20;8.83;;;;;;;6.12;49.70;102411.38;2097318;28;20740;-70
2022/02/14 01:50:46;;;;;;;13.20;8.25;;;;;;;6.13;50.53;102409.41;2097309;28;20196;-70
2022/02/14 01:51:46;;;;;;;13.50;8.50;;;;;;;6.23;49.87;102411.59;2097412;28;20181;-71
2022/02/14 01:52:47;;;;;;;12.17;8.70;;;;;;;6.22;49.91;102412.75;2096828;28;20187;-70
2022/02/14 01:53:49;;;;;;;12.20;7.97;;;;;;;6.21;49.57;102403.69;2097916;28;20265;-70
2022/02/14 01:54:50;;;;;;;12.20;8.40;;;;;;;5.32;49.58;102275.47;2097818;28;20214;-70
2022/02/14 01:55:52;;;;;;;12.18;8.30;;;;;;;5.91;49.44;102349.53;2097633;28;20184;-70
2022/02/14 01:56:53;;;;;;;12.43;8.57;;;;;;;6.25;49.67;102409.31;2097740;28;20273;-68
2022/02/14 01:57:53;;;;;;;13.97;9.00;;;;;;;6.21;49.03;102406.44;2097872;28;20235;-68
2022/02/14 01:58:54;;;;;;;12.67;8.33;;;;;;;6.23;49.54;102406.09;2097765;28;20191;-68
2022/02/14 01:59:57;;;;;;;11.33;8.67;;;;;;;6.22;49.28;102407.25;2097394;28;20260;-68
2022/02/14 02:00:58;;;;;;;12.15;8.23;;;;;;;6.21;49.19;102402.91;2096583;28;20244;-68
2022/02/14 02:01:59;;;;;;;13.13;9.17;;;;;;;6.18;49.10;102404.44;2096846;28;20200;-68
2022/02/14 02:03:00;;;;;;;12.07;8.65;;;;;;;6.18;49.83;102406.38;2097443;28;20191;-68
2022/02/14 02:04:00;;;;;;;12.07;8.67;;;;;;;6.12;49.21;102394.84;2097807;28;20197;-68
2022/02/14 02:05:02;;;;;;;11.87;8.53;;;;;;;6.15;49.84;102407.09;2097651;28;20186;-68
2022/02/14 02:06:04;;;;;;;12.85;8.27;;;;;;;6.14;50.18;102398.03;2097670;28;20187;-68
2022/02/14 02:07:05;;;;;;;12.30;8.70;;;;;;;5.53;49.81;102319.16;2097906;28;20186;-68
2022/02/14 02:08:06;;;;;;;11.68;7.93;;;;;;;6.14;49.89;102408.25;2097629;28;20222;-68
2022/02/14 02:09:06;;;;;;;11.47;8.37;;;;;;;6.11;49.76;102404.25;2096940;28;20196;-68
2022/02/14 02:10:09;;;;;;;11.07;8.57;;;;;;;6.13;49.45;102404.72;2096528;28;20465;-69
2022/02/14 02:12:29;;;;;;;10.50;8.25;;;;;;;6.02;49.94;102387.16;2097005;28;20163;-70
2022/02/14 02:13:29;;;;;;;11.13;8.40;;;;;;;6.16;50.16;102398.47;2097238;28;20186;-70
2022/02/14 02:14:30;;;;;;;10.73;8.30;;;;;;;6.15;49.76;102401.59;2097752;28;20604;-70
2022/02/14 02:15:31;;;;;;;12.00;8.17;;;;;;;6.19;49.84;102408.78;2097604;28;20187;-70
2022/02/14 02:16:31;;;;;;;11.93;8.87;;;;;;;6.15;49.82;102396.09;2097655;28;20182;-70
2022/02/14 02:17:40;;;;;;;12.00;8.43;;;;;;;6.14;50.08;102402.75;2097441;28;20207;-70
2022/02/14 02:18:41;;;;;;;11.85;8.27;;;;;;;5.73;49.78;102324.34;2097667;28;20250;-70
2022/02/14 02:19:41;;;;;;;13.73;8.57;;;;;;;5.81;49.80;102330.84;2097263;28;20196;-70
2022/02/14 02:20:42;;;;;;;12.90;8.10;;;;;;;6.12;49.79;102392.09;2096978;28;20180;-70
2022/02/14 02:21:46;;;;;;;12.27;8.97;;;;;;;6.10;49.95;102393.63;2096848;28;20612;-70
2022/02/14 02:22:50;;;;;;;14.93;9.10;;;;;;;6.09;50.41;102394.75;2096862;28;20186;-70
2022/02/14 02:23:56;;;;;;;14.40;8.45;;;;;;;6.08;50.24;102393.97;2097543;28;20703;-70
2022/02/14 02:24:58;;;;;;;14.15;8.43;;;;;;;6.08;49.43;102385.72;2097564;28;20235;-70
2022/02/14 02:25:58;;;;;;;14.52;8.63;;;;;;;6.06;49.65;102385.25;2097449;28;20224;-70
2022/02/14 02:27:02;;;;;;;11.53;8.10;;;;;;;6.04;49.57;102419.81;2097549;28;20663;-70
2022/02/14 02:28:03;;;;;;;12.63;8.45;;;;;;;6.00;50.42;102389.47;2097565;28;20689;-70
2022/02/14 02:29:03;;;;;;;14.17;8.00;;;;;;;5.89;50.63;102368.38;2088528;28;20689;-70
2022/02/14 02:30:07;;;;;;;14.20;8.77;;;;;;;6.03;50.19;102383.25;2088409;28;20185;-70
2022/02/14 02:31:07;;;;;;;13.55;8.18;;;;;;;6.04;50.18;102384.84;2096213;28;20193;-70
2022/02/14 02:32:09;;;;;;;14.03;8.70;;;;;;;6.06;49.57;102382.50;2096492;28;20186;-70
2022/02/14 02:33:10;;;;;;;11.18;8.23;;;;;;;5.57;50.35;102315.34;2097051;28;20182;-70
2022/02/14 02:34:10;;;;;;;13.27;8.07;;;;;;;5.82;50.36;102360.75;2097651;28;20178;-70
2022/02/14 02:35:12;;;;;;;13.37;8.17;;;;;;;5.91;50.38;102368.81;2097438;28;20237;-70
2022/02/14 02:36:13;;;;;;;11.18;8.50;;;;;;;5.92;50.28;102373.16;2097356;28;20217;-70
2022/02/14 02:37:15;;;;;;;11.83;8.07;;;;;;;5.91;50.33;102369.63;2097318;28;20201;-70
2022/02/14 02:38:16;;;;;;;13.07;8.40;;;;;;;5.92;50.42;102362.94;2097443;28;20212;-70
2022/02/14 02:39:17;;;;;;;10.65;8.00;;;;;;;6.02;50.21;102376.16;2097259;28;20197;-70
2022/02/14 02:40:18;;;;;;;12.95;8.68;;;;;;;6.02;50.07;102369.84;2097512;28;20178;-70
2022/02/14 02:41:19;;;;;;;11.40;8.00;;;;;;;6.04;50.17;102373.81;2095807;28;20250;-70
2022/02/14 02:42:20;;;;;;;14.03;8.63;;;;;;;6.04;49.96;102375.78;2096728;28;20190;-70
2022/02/14 02:43:21;;;;;;;11.35;8.18;;;;;;;5.81;50.31;102336.34;2096986;28;20618;-70
2022/02/14 02:44:21;;;;;;;13.30;8.93;;;;;;;5.99;49.72;102373.28;2097362;28;20270;-70
2022/02/14 02:45:22;;;;;;;12.10;8.07;;;;;;;5.96;49.90;102368.53;2097172;28;20212;-70
2022/02/14 02:46:23;;;;;;;12.53;8.37;;;;;;;5.97;49.65;102362.66;2097506;28;20667;-70
2022/02/14 02:47:26;;;;;;;12.00;8.00;;;;;;;5.97;50.11;102367.38;2088447;28;20184;-70
2022/02/14 02:48:27;;;;;;;12.57;8.18;;;;;;;6.00;49.78;102370.19;2088771;28;20207;-70
2022/02/14 02:49:27;;;;;;;12.40;8.33;;;;;;;5.18;49.94;102242.13;2096910;28;20185;-70
2022/02/14 02:50:28;;;;;;;10.70;7.50;;;;;;;5.92;49.97;102354.69;2097427;28;20260;-70
2022/02/14 02:51:29;;;;;;;11.40;8.17;;;;;;;6.00;50.34;102366.66;2096142;28;20186;-70
2022/02/14 02:52:29;;;;;;;10.37;7.60;;;;;;;5.98;50.25;102369.75;2096515;28;20260;-70
2022/02/14 02:53:31;;;;;;;10.07;7.90;;;;;;;5.96;50.59;102371.28;2096769;28;20660;-70
2022/02/14 02:54:32;;;;;;;13.10;8.43;;;;;;;5.03;50.43;102220.97;2097503;28;20209;-70
2022/02/14 02:55:32;;;;;;;13.07;8.27;;;;;;;5.95;50.27;102367.72;2097333;28;20183;-70
2022/02/14 02:56:34;;;;;;;13.87;8.50;;;;;;;5.97;50.58;102367.38;2097360;28;20197;-70
2022/02/14 02:57:35;;;;;;;13.88;8.85;;;;;;;4.78;50.21;102181.09;2097351;28;20193;-71
2022/02/14 02:58:35;;;;;;;12.20;7.67;;;;;;;5.94;50.07;102366.13;2097393;28;20191;-71
2022/02/14 02:59:36;;;;;;;11.67;8.40;;;;;;;5.91;50.01;102355.06;2096632;28;20290;-70
2022/02/14 03:00:37;;;;;;;12.13;8.30;;;;;;;5.80;50.50;102341.03;2097234;28;20182;-70
2022/02/14 03:01:39;;;;;;;12.63;7.80;;;;;;;5.96;50.01;102363.84;2096064;28;20191;-70
2022/02/14 03:02:39;;;;;;;11.73;7.95;;;;;;;5.93;49.64;102364.53;2096407;28;20180;-70
2022/02/14 03:03:40;;;;;;;11.80;8.23;;;;;;;5.29;49.77;102264.38;2097286;28;20190;-70
2022/02/14 03:04:41;;;;;;;11.40;8.13;;;;;;;4.94;49.75;102211.31;2097306;28;20650;-70
2022/02/14 03:05:42;;;;;;;10.40;8.15;;;;;;;5.87;49.75;102351.41;2097385;28;20285;-70
2022/02/14 03:06:43;;;;;;;11.17;8.33;;;;;;;5.90;50.13;102356.22;2097160;28;20181;-70
2022/02/14 03:07:43;;;;;;;12.30;8.30;;;;;;;5.75;50.02;102343.25;2097119;28;20567;-70
2022/02/14 03:08:44;;;;;;;11.33;8.03;;;;;;;5.88;50.46;102356.56;2088228;28;20311;-70
2022/02/14 03:09:44;;;;;;;11.60;7.77;;;;;;;5.79;50.21;102339.41;2088154;28;20655;-70
2022/02/14 03:10:45;;;;;;;10.97;7.80;;;;;;;5.83;49.88;102354.09;2096542;28;20190;-70
2022/02/14 03:11:46;;;;;;;11.13;8.33;;;;;;;5.74;50.47;102358.16;2096714;28;20214;-70
2022/02/14 03:12:46;;;;;;;12.20;7.53;;;;;;;5.78;50.45;102356.28;2096447;28;20211;-70
2022/02/14 03:13:48;;;;;;;13.73;8.17;;;;;;;5.81;50.55;102355.59;2097290;28;20213;-70
2022/02/14 03:14:49;;;;;;;11.20;8.00;;;;;;;5.80;50.85;102354.00;2097011;28;20660;-70
2022/02/14 03:15:49;;;;;;;13.03;8.37;;;;;;;5.71;50.65;102342.38;2097227;28;20606;-70
2022/02/14 03:16:51;;;;;;;11.47;7.30;;;;;;;5.78;50.44;102353.53;2097293;28;20193;-70
2022/02/14 03:17:51;;;;;;;11.10;7.57;;;;;;;5.75;50.46;102357.78;2097254;28;20187;-70
2022/02/14 03:18:52;;;;;;;10.50;7.60;;;;;;;5.78;51.07;102351.59;2097278;28;20180;-70
2022/02/14 03:19:52;;;;;;;10.80;8.17;;;;;;;5.67;50.89;102352.47;2096730;28;20188;-70
2022/02/14 03:20:53;;;;;;;11.93;8.00;;;;;;;5.65;50.89;102335.56;2096062;28;20187;-70
2022/02/14 03:21:55;;;;;;;9.67;7.70;;;;;;;5.77;50.83;102352.75;2096132;28;20186;-70
2022/02/14 03:22:55;;;;;;;10.73;8.15;;;;;;;5.76;50.62;102356.66;2096804;28;20293;-70
2022/02/14 03:23:59;;;;;;;11.13;7.53;;;;;;;4.71;50.81;102186.44;2097284;28;20191;-70
2022/02/14 03:25:00;;;;;;;10.20;8.00;;;;;;;5.81;50.93;102359.16;2097323;28;20254;-70
2022/02/14 03:26:01;;;;;;;12.40;7.67;;;;;;;5.81;50.66;102347.34;2097344;28;20186;-70
2022/02/14 03:27:02;;;;;;;12.27;8.37;;;;;;;5.83;50.59;102354.09;2097178;28;20188;-70
2022/02/14 03:28:03;;;;;;;11.30;8.30;;;;;;;5.82;50.39;102357.19;2088132;28;20279;-70
2022/02/14 03:29:04;;;;;;;10.97;8.20;;;;;;;5.88;50.84;102359.31;2088024;28;20194;-70
2022/02/14 03:30:05;;;;;;;11.13;7.50;;;;;;;5.91;50.91;102358.59;2096912;28;20213;-70
2022/02/14 03:31:06;;;;;;;11.70;8.05;;;;;;;5.90;50.27;102356.22;2087159;28;20427;-71
2022/02/14 03:32:07;;;;;;;11.87;8.20;;;;;;;5.86;50.16;102352.56;2087295;28;20661;-71
2022/02/14 03:33:07;;;;;;;11.37;7.87;;;;;;;5.35;50.43;102285.75;2096758;28;20670;-70
2022/02/14 03:34:08;;;;;;;9.93;7.30;;;;;;;5.81;50.31;102361.09;2088344;28;20669;-70
2022/02/14 03:35:09;;;;;;;11.73;8.00;;;;;;;5.76;50.40;102356.66;2088092;28;20187;-70
2022/02/14 03:36:10;;;;;;;10.70;7.97;;;;;;;5.75;50.43;102360.53;2097124;28;20187;-70
2022/02/14 03:37:11;;;;;;;10.93;7.78;;;;;;;4.79;50.53;102210.19;2096971;28;20661;-71
2022/02/14 03:38:12;;;;;;;10.13;7.47;;;;;;;5.30;50.55;102307.22;2097281;28;20683;-71
2022/02/14 03:39:13;;;;;;;12.52;7.43;;;;;;;5.67;50.48;102352.47;2097131;28;20181;-70
2022/02/14 03:40:13;;;;;;;11.17;7.90;;;;;;;5.61;50.49;102357.47;2097056;28;20189;-70
2022/02/14 03:41:14;;;;;;;9.73;7.43;;;;;;;5.66;50.25;102354.47;2095845;28;20314;-70
2022/02/14 03:42:15;;;;;;;11.57;7.90;;;;;;;4.99;50.74;102250.34;2087146;28;20238;-70
2022/02/14 03:43:15;;;;;;;11.47;7.90;;;;;;;5.76;50.48;102359.41;2087830;28;20411;-70
2022/02/14 03:44:16;;;;;;;11.60;8.00;;;;;;;5.79;49.85;102355.94;2097231;28;20822;-70
2022/02/14 03:45:17;;;;;;;9.97;7.33;;;;;;;5.80;50.72;102360.28;2097098;28;20180;-70
2022/02/14 03:46:17;;;;;;;10.53;7.20;;;;;;;5.87;50.13;102349.47;2097261;28;20704;-70
2022/02/14 03:47:18;;;;;;;10.00;7.63;;;;;;;5.51;50.10;102302.22;2097006;28;20563;-70
2022/02/14 03:48:19;;;;;;;11.60;7.63;;;;;;;5.90;50.32;102390.00;2096955;28;20215;-70
2022/02/14 03:49:19;;;;;;;11.93;7.95;;;;;;;5.91;50.71;102357.81;2096948;28;20209;-70
2022/02/14 03:50:20;;;;;;;9.73;7.07;;;;;;;4.89;50.25;102198.66;2096742;28;20226;-70
2022/02/14 03:51:21;;;;;;;13.20;8.00;;;;;;;5.95;49.90;102342.16;2096045;28;20611;-70
2022/02/14 03:52:21;;;;;;;11.93;8.17;;;;;;;6.00;50.12;102350.16;2095527;28;20577;-70
2022/02/14 03:53:26;;;;;;;10.87;7.33;;;;;;;6.05;50.21;102349.88;2096045;28;20179;-70
2022/02/14 03:54:26;;;;;;;11.65;7.68;;;;;;;6.03;49.60;102354.91;2097190;28;20734;-70
2022/02/14 03:55:27;;;;;;;9.87;8.00;;;;;;;6.02;49.78;102351.38;2097104;28;20622;-70
2022/02/14 03:56:28;;;;;;;10.33;7.70;;;;;;;6.02;49.88;102356.06;2097012;28;20257;-70
2022/02/14 03:57:28;;;;;;;10.23;7.57;;;;;;;6.00;49.44;102353.69;2096867;28;20214;-70
2022/02/14 03:58:29;;;;;;;12.17;7.90;;;;;;;5.97;49.77;102353.59;2097223;28;20668;-71
2022/02/14 03:59:30;;;;;;;12.67;7.63;;;;;;;5.93;49.61;102352.72;2096558;28;20187;-71
2022/02/14 04:00:30;;;;;;;11.43;8.03;;;;;;;4.75;50.00;102211.25;2097222;28;20206;-71
2022/02/14 04:01:31;;;;;;;11.30;8.07;;;;;;;5.91;49.88;102364.13;2095995;28;20215;-71
2022/02/14 04:02:31;;;;;;;11.23;7.33;;;;;;;5.87;49.86;102348.66;2096125;28;20175;-71
2022/02/14 04:03:32;;;;;;;11.43;7.93;;;;;;;5.84;49.39;102347.41;2095830;28;20641;-71
2022/02/14 04:04:32;;;;;;;11.70;8.03;;;;;;;5.83;49.54;102350.53;2096572;28;20184;-71
2022/02/14 04:05:33;;;;;;;9.80;7.63;;;;;;;5.70;49.56;102336.06;2096890;28;20187;-71
2022/02/14 04:06:34;;;;;;;10.57;7.50;;;;;;;5.70;49.98;102338.81;2097242;28;20172;-71
2022/02/14 04:07:35;;;;;;;10.80;7.70;;;;;;;5.74;50.08;102338.91;2096844;28;20658;-71
2022/02/14 04:08:35;;;;;;;11.37;7.10;;;;;;;4.78;50.02;102203.09;2097027;28;20210;-71
2022/02/14 04:09:36;;;;;;;12.07;7.80;;;;;;;5.82;50.57;102347.00;2096680;28;20184;-71
2022/02/14 04:10:36;;;;;;;10.77;7.20;;;;;;;5.82;50.36;102352.50;2097047;28;20314;-71
2022/02/14 04:11:37;;;;;;;10.80;7.57;;;;;;;5.85;50.17;102353.72;2096317;28;20611;-71
2022/02/14 04:12:38;;;;;;;10.83;7.60;;;;;;;5.79;49.71;102349.66;2105543;28;20190;-71
2022/02/14 04:13:39;;;;;;;13.02;7.72;;;;;;;5.79;50.07;102355.94;2104837;28;20210;-71
2022/02/14 04:14:39;;;;;;;10.60;7.53;;;;;;;5.68;50.05;102337.56;2098557;28;20187;-71
2022/02/14 04:15:40;;;;;;;10.83;7.43;;;;;;;5.63;50.70;102329.59;2098754;28;20298;-71
2022/02/14 04:16:40;;;;;;;10.30;7.60;;;;;;;5.64;50.69;102350.47;2089579;28;20185;-70
2022/02/14 04:17:42;;;;;;;10.93;7.30;;;;;;;5.00;50.45;102249.19;2089595;28;20791;-70
2022/02/14 04:18:42;;;;;;;10.20;7.90;;;;;;;5.32;50.64;102294.69;2098450;28;20570;-70
2022/02/14 04:19:43;;;;;;;9.67;7.40;;;;;;;5.15;50.65;102261.28;2098275;28;20264;-70
2022/02/14 04:20:43;;;;;;;10.07;7.70;;;;;;;5.65;51.10;102344.59;2097878;28;20184;-70
2022/02/14 04:21:44;;;;;;;11.20;7.63;;;;;;;5.67;50.58;102345.03;2097932;28;20271;-70
2022/02/14 04:22:44;;;;;;;10.40;7.70;;;;;;;5.63;50.37;102330.41;2097457;28;20191;-70
2022/02/14 04:23:45;;;;;;;11.10;7.20;;;;;;;5.65;50.72;102347.34;2098670;28;20183;-70
2022/02/14 04:24:46;;;;;;;10.73;7.67;;;;;;;5.58;50.98;102330.69;2098429;28;20546;-70
2022/02/14 04:25:47;;;;;;;10.68;8.20;;;;;;;4.87;50.88;102220.19;2098528;28;20760;-70
2022/02/14 04:26:47;;;;;;;10.80;7.83;;;;;;;5.72;50.79;102346.72;2098436;28;20585;-70
2022/02/14 04:27:48;;;;;;;9.93;7.40;;;;;;;5.71;50.95;102345.13;2089712;28;20282;-70
2022/02/14 04:28:48;;;;;;;10.53;7.60;;;;;;;5.71;50.72;102342.38;2089366;28;20208;-70
2022/02/14 04:29:49;;;;;;;9.97;7.63;;;;;;;5.70;50.72;102352.56;2098109;28;20623;-70
2022/02/14 04:30:49;;;;;;;10.43;7.73;;;;;;;5.70;51.23;102344.31;2097625;28;20184;-70
2022/02/14 04:31:50;;;;;;;11.90;7.50;;;;;;;5.72;50.92;102333.75;2097742;28;20212;-70
2022/02/14 04:32:53;;;;;;;9.70;7.60;;;;;;;5.71;51.35;102343.19;2097686;28;20683;-70
2022/02/14 04:33:53;;;;;;;11.10;7.90;;;;;;;5.72;51.21;102339.25;2098448;28;20187;-70
2022/02/14 04:34:54;;;;;;;8.87;7.03;;;;;;;5.67;50.61;102346.97;2098447;28;20190;-70
2022/02/14 04:35:54;;;;;;;10.17;7.53;;;;;;;5.49;51.13;102338.31;2098467;28;20261;-70
2022/02/14 04:36:55;;;;;;;11.70;8.00;;;;;;;4.84;51.19;102262.13;2098460;28;20186;-70
2022/02/14 04:37:59;;;;;;;10.80;7.67;;;;;;;5.57;51.28;102342.84;2098503;28;20250;-70
2022/02/14 04:38:59;;;;;;;10.70;8.52;;;;;;;5.58;51.55;102343.63;2098268;28;20185;-70
2022/02/14 04:40:00;;;;;;;10.70;7.77;;;;;;;4.57;51.54;102183.34;2098020;28;20234;-70
2022/02/14 04:41:01;;;;;;;10.97;7.67;;;;;;;5.52;51.28;102343.13;2097203;28;20238;-70
2022/02/14 04:42:01;;;;;;;11.27;7.53;;;;;;;5.45;51.20;102325.66;2097551;28;20187;-70
2022/02/14 04:43:03;;;;;;;11.33;7.60;;;;;;;5.47;51.32;102339.81;2097912;28;20268;-70
2022/02/14 04:44:04;;;;;;;11.77;7.78;;;;;;;5.38;51.40;102347.47;2089508;28;20246;-70
2022/02/14 04:45:05;;;;;;;9.82;7.78;;;;;;;5.36;51.60;102336.03;2089407;28;20544;-70
2022/02/14 04:46:05;;;;;;;10.90;7.57;;;;;;;5.36;51.71;102342.34;2098347;28;20187;-70